createdAt,value
2022-11-21T00:01:26.612Z,59.20
2022-11-21T00:03:53.893Z,59.20
2022-11-21T00:06:21.063Z,59.50
2022-11-21T00:08:47.935Z,59.20
2022-11-21T00:11:15.215Z,59.20
2022-11-21T00:13:43.085Z,59.20
2022-11-21T00:16:12.182Z,59.20
2022-11-21T00:18:39.647Z,59.50
2022-11-21T00:21:17.896Z,59.30
2022-11-21T00:23:46.228Z,58.90
2022-11-21T00:26:14.778Z,59.60
2022-11-21T00:28:41.890Z,59.20
2022-11-21T00:31:10.225Z,59.90
2022-11-21T00:33:39.075Z,59.80
2022-11-21T00:36:08.154Z,60.00
2022-11-21T00:38:35.365Z,59.40
2022-11-21T00:41:02.306Z,59.70
2022-11-21T00:43:29.279Z,59.90
2022-11-21T00:45:56.115Z,59.50
2022-11-21T00:48:23.001Z,59.80
2022-11-21T00:50:50.187Z,59.20
2022-11-21T00:53:17.038Z,59.50
2022-11-21T00:55:43.886Z,59.60
2022-11-21T00:58:10.729Z,59.40
2022-11-21T01:00:37.616Z,59.90
2022-11-21T01:03:04.496Z,59.40
2022-11-21T01:05:33.197Z,59.60
2022-11-21T01:08:00.064Z,59.40
2022-11-21T01:10:26.877Z,59.90
2022-11-21T01:12:53.806Z,59.70
2022-11-21T01:15:20.638Z,59.40
2022-11-21T01:17:47.591Z,59.20
2022-11-21T01:20:14.763Z,59.50
2022-11-21T01:22:41.706Z,59.60
2022-11-21T01:25:08.691Z,59.30
2022-11-21T01:27:35.824Z,59.10
2022-11-21T01:30:03.059Z,59.80
2022-11-21T01:32:29.877Z,60.00
2022-11-21T01:34:56.645Z,59.70
2022-11-21T01:37:23.460Z,60.00
2022-11-21T01:39:50.384Z,59.90
2022-11-21T01:42:17.245Z,59.60
2022-11-21T01:44:50.698Z,59.80
2022-11-21T01:47:17.944Z,59.50
2022-11-21T01:49:46.286Z,59.80
2022-11-21T01:52:32.521Z,60.20
2022-11-21T01:55:09.116Z,59.90
2022-11-21T01:57:41.089Z,59.80
2022-11-21T02:00:24.096Z,59.90
2022-11-21T02:02:57.614Z,60.00
2022-11-21T02:05:28.043Z,59.90
2022-11-21T02:08:03.847Z,60.10
2022-11-21T02:10:30.693Z,59.80
2022-11-21T02:12:59.280Z,60.20
2022-11-21T02:15:29.275Z,60.20
2022-11-21T02:17:56.551Z,60.00
2022-11-21T02:20:25.457Z,60.20
2022-11-21T02:23:10.446Z,60.10
2022-11-21T02:25:42.361Z,59.70
2022-11-21T02:28:14.721Z,59.70
2022-11-21T02:30:43.437Z,59.50
2022-11-21T02:33:11.462Z,59.70
2022-11-21T02:35:38.769Z,59.90
2022-11-21T02:38:19.674Z,59.80
2022-11-21T02:40:55.166Z,59.40
2022-11-21T02:43:26.337Z,59.60
2022-11-21T02:45:53.208Z,59.40
2022-11-21T02:48:20.071Z,59.50
2022-11-21T02:51:03.434Z,59.60
2022-11-21T02:53:30.282Z,59.50
2022-11-21T02:55:57.435Z,60.20
2022-11-21T02:58:24.533Z,59.50
2022-11-21T03:00:51.425Z,59.90
2022-11-21T03:03:18.231Z,59.60
2022-11-21T03:05:45.108Z,59.70
2022-11-21T03:08:12.014Z,59.70
2022-11-21T03:10:39.020Z,59.60
2022-11-21T03:13:05.931Z,59.30
2022-11-21T03:15:34.661Z,59.70
2022-11-21T03:18:03.013Z,59.40
2022-11-21T03:20:32.636Z,59.90
2022-11-21T03:22:59.500Z,59.70
2022-11-21T03:25:27.073Z,59.50
2022-11-21T03:27:54.586Z,59.10
2022-11-21T03:30:24.981Z,60.00
2022-11-21T03:32:56.036Z,59.30
2022-11-21T03:35:23.192Z,59.70
2022-11-21T03:37:50.096Z,59.40
2022-11-21T03:40:16.962Z,59.70
2022-11-21T03:42:44.054Z,59.30
2022-11-21T03:45:11.038Z,59.90
2022-11-21T03:47:37.865Z,59.70
2022-11-21T03:50:04.984Z,59.40
2022-11-21T03:52:31.788Z,59.70
2022-11-21T03:54:58.600Z,59.60
2022-11-21T03:57:25.462Z,59.50
2022-11-21T03:59:52.339Z,60.00
2022-11-21T04:02:19.236Z,60.10
2022-11-21T04:04:46.071Z,59.40
2022-11-21T04:07:12.949Z,59.90
2022-11-21T04:09:39.752Z,59.60
2022-11-21T04:12:08.031Z,59.80
2022-11-21T04:14:35.103Z,59.40
2022-11-21T04:17:02.089Z,59.30
2022-11-21T04:19:28.997Z,59.90
2022-11-21T04:21:55.840Z,60.40
2022-11-21T04:24:22.688Z,59.80
2022-11-21T04:26:49.529Z,59.80
2022-11-21T04:29:16.368Z,59.50
2022-11-21T04:31:43.154Z,59.70
2022-11-21T04:34:09.998Z,58.90
2022-11-21T04:36:36.983Z,59.40
2022-11-21T04:39:04.462Z,59.60
2022-11-21T04:41:31.320Z,59.80
2022-11-21T04:43:58.175Z,59.60
2022-11-21T04:46:25.030Z,59.60
2022-11-21T04:48:51.819Z,59.60
2022-11-21T04:51:18.677Z,59.60
2022-11-21T04:53:45.498Z,59.70
2022-11-21T04:56:16.351Z,59.90
2022-11-21T04:58:44.807Z,59.30
2022-11-21T05:01:11.948Z,59.60
2022-11-21T05:03:38.880Z,59.70
2022-11-21T05:06:05.827Z,59.60
2022-11-21T05:08:32.755Z,59.80
2022-11-21T05:11:17.968Z,59.70
2022-11-21T05:13:44.896Z,59.60
2022-11-21T05:16:11.725Z,59.80
2022-11-21T05:18:38.787Z,59.50
2022-11-21T05:21:05.803Z,59.60
2022-11-21T05:23:32.669Z,59.50
2022-11-21T05:26:00.158Z,59.80
2022-11-21T05:28:27.048Z,60.10
2022-11-21T05:30:53.866Z,59.80
2022-11-21T05:33:20.729Z,60.50
2022-11-21T05:35:47.773Z,59.60
2022-11-21T05:38:14.616Z,60.10
2022-11-21T05:40:41.474Z,59.60
2022-11-21T05:43:28.506Z,59.90
2022-11-21T05:45:55.332Z,59.50
2022-11-21T05:48:22.134Z,59.50
2022-11-21T05:50:49.762Z,59.30
2022-11-21T05:53:17.614Z,59.80
2022-11-21T05:55:45.236Z,59.30
2022-11-21T05:58:12.776Z,60.10
2022-11-21T06:00:39.804Z,59.00
2022-11-21T06:03:26.910Z,57.90
2022-11-21T06:06:15.255Z,57.90
2022-11-21T06:08:43.310Z,58.00
2022-11-21T06:11:12.520Z,59.20
2022-11-21T06:13:39.891Z,60.20
2022-11-21T06:16:16.226Z,61.30
2022-11-21T06:18:46.378Z,61.30
2022-11-21T06:21:15.059Z,61.90
2022-11-21T06:23:42.144Z,61.00
2022-11-21T06:26:13.690Z,62.00
2022-11-21T06:28:41.542Z,61.20
2022-11-21T06:31:12.700Z,61.80
2022-11-21T06:33:40.457Z,61.70
2022-11-21T06:36:12.807Z,63.10
2022-11-21T06:38:40.333Z,63.20
2022-11-21T06:41:15.573Z,62.80
2022-11-21T06:43:42.565Z,63.30
2022-11-21T06:46:09.990Z,63.10
2022-11-21T06:48:38.077Z,63.20
2022-11-21T06:51:27.420Z,62.40
2022-11-21T06:53:59.157Z,62.60
2022-11-21T06:56:28.553Z,62.80
2022-11-21T06:58:56.078Z,63.50
2022-11-21T07:01:23.724Z,63.10
2022-11-21T07:03:50.722Z,63.60
2022-11-21T07:06:18.668Z,62.80
2022-11-21T07:08:45.649Z,62.50
2022-11-21T07:11:29.840Z,63.00
2022-11-21T07:13:56.717Z,61.80
2022-11-21T07:16:26.380Z,61.80
2022-11-21T07:18:53.536Z,61.90
2022-11-21T07:21:20.417Z,62.10
2022-11-21T07:23:47.878Z,61.00
2022-11-21T07:26:15.081Z,61.50
2022-11-21T07:28:42.205Z,61.20
2022-11-21T07:31:13.492Z,60.80
2022-11-21T07:33:43.422Z,61.90
2022-11-21T07:36:11.610Z,60.50
2022-11-21T07:38:38.494Z,61.00
2022-11-21T07:41:05.294Z,61.40
2022-11-21T07:43:32.093Z,61.20
2022-11-21T07:45:58.856Z,61.00
2022-11-21T07:48:25.731Z,61.00
2022-11-21T07:50:52.568Z,60.70
2022-11-21T07:53:19.455Z,61.20
2022-11-21T07:55:46.293Z,60.50
2022-11-21T07:58:15.703Z,61.80
2022-11-21T08:00:43.081Z,60.10
2022-11-21T08:03:14.009Z,61.10
2022-11-21T08:05:43.018Z,61.00
2022-11-21T08:08:11.829Z,61.10
2022-11-21T08:10:41.406Z,60.10
2022-11-21T08:13:08.482Z,59.70
2022-11-21T08:15:36.437Z,60.20
2022-11-21T08:18:14.556Z,59.80
2022-11-21T08:20:42.000Z,59.80
2022-11-21T08:23:10.322Z,59.70
2022-11-21T08:25:38.843Z,60.00
2022-11-21T08:28:06.945Z,59.60
2022-11-21T08:30:35.042Z,60.10
2022-11-21T08:33:02.239Z,59.60
2022-11-21T08:35:29.495Z,59.50
2022-11-21T08:38:00.372Z,59.30
2022-11-21T08:40:29.576Z,59.10
2022-11-21T08:43:01.595Z,59.70
2022-11-21T08:45:28.816Z,59.80
2022-11-21T08:47:55.790Z,59.60
2022-11-21T08:50:23.920Z,59.90
2022-11-21T08:52:50.904Z,59.70
2022-11-21T08:55:18.098Z,58.80
2022-11-21T08:57:44.860Z,58.70
2022-11-21T09:00:14.575Z,58.30
2022-11-21T09:02:41.780Z,58.70
2022-11-21T09:05:09.592Z,59.50
2022-11-21T09:07:36.830Z,58.80
2022-11-21T09:10:04.594Z,59.00
2022-11-21T09:12:31.498Z,58.90
2022-11-21T09:15:17.138Z,58.70
2022-11-21T09:18:02.691Z,58.60
2022-11-21T09:20:34.316Z,59.30
2022-11-21T09:23:09.496Z,58.20
2022-11-21T09:25:36.846Z,59.00
2022-11-21T09:28:05.467Z,59.10
2022-11-21T09:30:33.040Z,59.40
2022-11-21T09:33:04.493Z,58.40
2022-11-21T09:35:31.535Z,58.70
2022-11-21T09:37:58.491Z,59.10
2022-11-21T09:40:26.249Z,58.90
2022-11-21T09:43:38.268Z,59.30
2022-11-21T09:46:18.162Z,58.50
2022-11-21T09:49:00.607Z,57.40
2022-11-21T09:51:30.865Z,58.00
2022-11-21T09:54:13.135Z,59.50
2022-11-21T09:56:45.238Z,58.20
2022-11-21T09:59:29.998Z,57.70
2022-11-21T10:01:57.070Z,58.90
2022-11-21T10:04:24.631Z,58.60
2022-11-21T10:07:06.323Z,60.70
2022-11-21T10:10:18.057Z,59.00
2022-11-21T10:13:00.117Z,59.20
2022-11-21T10:15:34.657Z,58.80
2022-11-21T10:18:28.419Z,59.20
2022-11-21T10:21:26.210Z,58.60
2022-11-21T10:24:22.846Z,58.30
2022-11-21T10:26:58.090Z,58.50
2022-11-21T10:29:40.426Z,58.90
2022-11-21T10:32:31.480Z,58.30
2022-11-21T10:35:03.354Z,59.30
2022-11-21T10:37:39.690Z,59.00
2022-11-21T10:40:28.513Z,59.20
2022-11-21T10:43:42.524Z,58.80
2022-11-21T10:46:10.000Z,58.10
2022-11-21T10:48:36.837Z,59.60
2022-11-21T10:51:12.793Z,58.70
2022-11-21T10:54:03.273Z,59.20
2022-11-21T10:56:35.463Z,58.20
2022-11-21T10:59:13.606Z,59.60
2022-11-21T11:01:40.553Z,59.60
2022-11-21T11:07:28.345Z,59.20
2022-11-21T11:10:27.699Z,58.90
2022-11-21T11:16:22.608Z,59.40
2022-11-21T11:19:16.838Z,58.90
2022-11-21T11:21:45.436Z,59.40
2022-11-21T11:24:12.365Z,59.20
2022-11-21T11:26:48.940Z,58.90
2022-11-21T11:29:35.197Z,59.10
2022-11-21T11:32:20.813Z,58.80
2022-11-21T11:35:00.484Z,58.40
2022-11-21T11:37:41.105Z,58.90
2022-11-21T11:40:08.380Z,59.30
2022-11-21T11:43:05.836Z,59.60
2022-11-21T11:46:00.310Z,59.00
2022-11-21T11:48:29.501Z,59.10
2022-11-21T11:51:02.447Z,58.80
2022-11-21T11:53:38.924Z,59.40
2022-11-21T11:56:16.752Z,59.60
2022-11-21T11:58:49.798Z,58.90
2022-11-21T12:01:33.106Z,59.10
2022-11-21T12:04:23.885Z,59.00
2022-11-21T12:08:19.792Z,59.20
2022-11-21T12:10:15.182Z,59.00
2022-11-21T12:13:05.184Z,58.60
2022-11-21T12:15:50.092Z,59.00
2022-11-21T12:18:19.848Z,58.80
2022-11-21T12:21:07.893Z,59.10
2022-11-21T12:23:44.918Z,58.80
2022-11-21T12:26:20.581Z,58.40
2022-11-21T12:28:59.158Z,59.40
2022-11-21T12:31:50.098Z,59.10
2022-11-21T12:34:53.861Z,58.70
2022-11-21T12:37:42.066Z,59.10
2022-11-21T12:40:38.100Z,58.90
2022-11-21T12:43:18.876Z,59.00
2022-11-21T12:46:02.396Z,59.40
2022-11-21T12:49:09.253Z,59.50
2022-11-21T12:52:29.678Z,58.80
2022-11-21T12:55:21.144Z,59.40
2022-11-21T12:58:09.504Z,59.20
2022-11-21T13:01:02.115Z,60.10
2022-11-21T13:03:43.278Z,58.90
2022-11-21T13:06:19.349Z,59.50
2022-11-21T13:08:48.737Z,59.80
2022-11-21T13:12:00.013Z,59.30
2022-11-21T13:14:53.061Z,59.40
2022-11-21T13:17:25.633Z,59.30
2022-11-21T13:20:02.091Z,58.80
2022-11-21T13:22:50.186Z,59.90
2022-11-21T13:25:32.294Z,59.00
2022-11-21T13:28:23.761Z,59.50
2022-11-21T13:30:55.118Z,58.50
2022-11-21T13:33:39.636Z,59.60
2022-11-21T13:36:13.338Z,59.50
2022-11-21T13:38:52.943Z,59.20
2022-11-21T13:41:53.197Z,59.20
2022-11-21T13:44:32.173Z,59.30
2022-11-21T13:47:12.297Z,59.10
2022-11-21T13:50:09.990Z,58.90
2022-11-21T13:52:45.440Z,58.90
2022-11-21T13:55:14.917Z,58.90
2022-11-21T13:58:03.465Z,59.20
2022-11-21T14:01:00.452Z,58.60
2022-11-21T14:03:47.814Z,58.80
2022-11-21T14:06:32.647Z,59.40
2022-11-21T14:09:21.398Z,59.40
2022-11-21T14:11:53.706Z,58.50
2022-11-21T14:14:34.785Z,58.50
2022-11-21T14:17:35.524Z,58.80
2022-11-21T14:20:19.247Z,59.10
2022-11-21T14:23:14.793Z,58.80
2022-11-21T14:25:50.937Z,59.30
2022-11-21T14:28:28.850Z,58.40
2022-11-21T14:31:02.683Z,58.90
2022-11-21T14:33:35.176Z,59.30
2022-11-21T14:36:23.784Z,58.80
2022-11-21T14:39:13.879Z,58.70
2022-11-21T14:41:39.851Z,59.20
2022-11-21T14:44:15.467Z,59.40
2022-11-21T14:46:43.359Z,59.60
2022-11-21T14:49:20.026Z,59.30
2022-11-21T14:51:59.887Z,58.70
2022-11-21T14:54:33.188Z,59.10
2022-11-21T14:57:06.933Z,58.90
2022-11-21T14:59:40.602Z,58.50
2022-11-21T15:02:16.182Z,58.50
2022-11-21T15:04:44.943Z,59.20
2022-11-21T15:07:18.657Z,58.20
2022-11-21T15:10:36.256Z,58.60
2022-11-21T15:12:50.597Z,58.70
2022-11-21T15:15:20.374Z,59.20
2022-11-21T15:18:24.017Z,59.20
2022-11-21T15:20:40.594Z,58.30
2022-11-21T15:23:35.883Z,58.80
2022-11-21T15:26:02.959Z,58.60
2022-11-21T15:28:30.994Z,59.00
2022-11-21T15:31:19.645Z,58.30
2022-11-21T15:34:33.675Z,58.90
2022-11-21T15:37:18.014Z,58.80
2022-11-21T15:39:48.047Z,58.60
2022-11-21T15:42:31.532Z,58.30
2022-11-21T15:45:19.898Z,59.10
2022-11-21T15:47:48.556Z,59.00
2022-11-21T15:50:16.661Z,59.10
2022-11-21T15:52:49.069Z,58.90
2022-11-21T15:55:29.275Z,58.30
2022-11-21T15:57:56.305Z,57.80
2022-11-21T16:00:23.196Z,58.40
2022-11-21T16:02:50.143Z,58.60
2022-11-21T16:05:17.013Z,58.70
2022-11-21T16:07:44.191Z,58.90
2022-11-21T16:10:18.296Z,59.20
2022-11-21T16:12:48.644Z,58.50
2022-11-21T16:15:15.599Z,58.90
2022-11-21T16:17:42.497Z,58.60
2022-11-21T16:20:09.638Z,58.70
2022-11-21T16:22:36.523Z,58.80
2022-11-21T16:25:03.521Z,58.80
2022-11-21T16:27:32.598Z,58.70
2022-11-21T16:29:59.616Z,58.80
2022-11-21T16:32:27.030Z,59.10
2022-11-21T16:34:54.850Z,59.10
2022-11-21T16:37:21.642Z,58.80
2022-11-21T16:39:52.037Z,59.00
2022-11-21T16:42:20.244Z,59.30
2022-11-21T16:44:48.095Z,59.20
2022-11-21T16:47:15.296Z,58.90
2022-11-21T16:49:48.476Z,59.00
2022-11-21T16:52:16.072Z,59.40
2022-11-21T16:54:42.919Z,59.60
2022-11-21T16:57:10.117Z,59.60
2022-11-21T16:59:37.207Z,59.40
2022-11-21T17:02:04.378Z,59.30
2022-11-21T17:04:31.964Z,59.10
2022-11-21T17:07:00.836Z,59.30
2022-11-21T17:09:27.833Z,59.30
2022-11-21T17:11:57.586Z,59.40
2022-11-21T17:14:24.552Z,60.10
2022-11-21T17:16:51.822Z,59.50
2022-11-21T17:19:18.934Z,59.70
2022-11-21T17:21:45.898Z,60.00
2022-11-21T17:24:13.680Z,59.00
2022-11-21T17:26:40.653Z,59.30
2022-11-21T17:29:07.863Z,59.10
2022-11-21T17:31:34.878Z,59.30
2022-11-21T17:34:02.109Z,58.50
2022-11-21T17:36:30.435Z,59.90
2022-11-21T17:38:57.466Z,59.30
2022-11-21T17:41:25.513Z,58.80
2022-11-21T17:43:57.366Z,59.70
2022-11-21T17:46:25.573Z,59.10
2022-11-21T17:48:55.748Z,58.80
2022-11-21T17:51:30.412Z,59.20
2022-11-21T17:53:58.043Z,59.10
2022-11-21T17:56:27.932Z,59.10
2022-11-21T17:58:55.282Z,58.80
2022-11-21T18:01:22.687Z,59.30
2022-11-21T18:03:56.129Z,59.20
2022-11-21T18:06:23.928Z,59.30
2022-11-21T18:08:50.808Z,58.80
2022-11-21T18:11:21.273Z,59.30
2022-11-21T18:13:50.737Z,59.20
2022-11-21T18:16:20.415Z,58.50
2022-11-21T18:18:47.857Z,58.60
2022-11-21T18:21:17.574Z,58.80
2022-11-21T18:23:44.641Z,60.10
2022-11-21T18:26:12.635Z,59.10
2022-11-21T18:28:40.623Z,60.50
2022-11-21T18:31:18.844Z,59.70
2022-11-21T18:33:49.718Z,59.80
2022-11-21T18:36:16.836Z,60.50
2022-11-21T18:38:50.493Z,59.80
2022-11-21T18:41:28.742Z,58.50
2022-11-21T18:44:03.990Z,58.00
2022-11-21T18:46:32.608Z,58.20
2022-11-21T18:49:05.359Z,58.40
2022-11-21T18:51:34.150Z,58.30
2022-11-21T18:54:11.136Z,58.50
2022-11-21T18:56:39.443Z,59.00
2022-11-21T18:59:06.850Z,59.10
2022-11-21T19:01:36.492Z,59.20
2022-11-21T19:04:03.814Z,59.70
2022-11-21T19:06:31.069Z,59.80
2022-11-21T19:08:58.919Z,60.40
2022-11-21T19:11:28.646Z,61.40
2022-11-21T19:13:56.572Z,59.50
2022-11-21T19:16:25.893Z,60.70
2022-11-21T19:21:43.479Z,60.30
2022-11-21T19:24:15.822Z,61.00
2022-11-21T19:26:43.317Z,60.50
2022-11-21T19:29:10.736Z,59.80
2022-11-21T19:31:43.065Z,60.40
2022-11-21T19:34:15.838Z,59.90
2022-11-21T19:36:43.751Z,59.70
2022-11-21T19:39:11.295Z,59.50
2022-11-21T19:41:38.325Z,59.80
2022-11-21T19:44:05.617Z,59.10
2022-11-21T19:46:35.461Z,59.80
2022-11-21T19:49:02.788Z,60.40
2022-11-21T19:51:33.336Z,60.40
2022-11-21T19:54:02.928Z,60.10
2022-11-21T19:56:29.872Z,59.80
2022-11-21T19:58:57.556Z,59.40
2022-11-21T20:01:29.707Z,59.10
2022-11-21T20:03:59.472Z,59.30
2022-11-21T20:06:35.570Z,58.30
2022-11-21T20:09:07.676Z,57.90
2022-11-21T20:11:35.411Z,58.60
2022-11-21T20:14:02.398Z,58.60
2022-11-21T20:16:32.462Z,59.90
2022-11-21T20:19:01.932Z,59.20
2022-11-21T20:21:29.289Z,59.20
2022-11-21T20:23:56.665Z,59.50
2022-11-21T20:26:24.387Z,59.40
2022-11-21T20:28:51.497Z,59.20
2022-11-21T20:31:23.560Z,59.10
2022-11-21T20:33:52.735Z,60.00
2022-11-21T20:36:25.343Z,59.90
2022-11-21T20:38:53.949Z,59.80
2022-11-21T20:41:22.911Z,59.10
2022-11-21T20:44:34.689Z,59.40
2022-11-21T20:46:41.401Z,59.40
2022-11-21T20:49:08.354Z,59.40
2022-11-21T20:53:06.193Z,59.80
2022-11-21T20:54:22.181Z,59.50
2022-11-21T20:56:49.058Z,59.80
2022-11-21T20:59:16.009Z,59.90
2022-11-21T21:01:42.890Z,59.80
2022-11-21T21:04:09.826Z,59.90
2022-11-21T21:06:37.642Z,60.30
2022-11-21T21:09:04.779Z,59.10
2022-11-21T21:14:18.684Z,58.40
2022-11-21T21:16:45.566Z,59.30
2022-11-21T21:19:12.486Z,59.40
2022-11-21T21:21:41.424Z,59.60
2022-11-21T21:24:10.862Z,59.30
2022-11-21T21:26:47.045Z,59.30
2022-11-21T21:29:19.339Z,59.40
2022-11-21T21:31:51.594Z,59.20
2022-11-21T21:34:20.421Z,59.00
2022-11-21T21:36:47.540Z,59.80
2022-11-21T21:39:14.629Z,58.90
2022-11-21T21:41:44.573Z,59.10
2022-11-21T21:44:12.172Z,59.00
2022-11-21T21:46:39.284Z,59.10
2022-11-21T21:49:06.155Z,59.10
2022-11-21T21:51:33.010Z,59.70
2022-11-21T21:54:00.421Z,59.10
2022-11-21T21:56:28.395Z,59.00
2022-11-21T21:58:57.086Z,58.30
2022-11-21T22:01:29.405Z,58.40
2022-11-21T22:03:58.839Z,58.20
2022-11-21T22:06:26.305Z,57.90
2022-11-21T22:08:54.512Z,58.20
2022-11-21T22:11:23.918Z,58.70
2022-11-21T22:14:01.983Z,58.80
2022-11-21T22:16:29.529Z,58.60
2022-11-21T22:18:56.952Z,59.00
2022-11-21T22:21:28.866Z,58.60
2022-11-21T22:24:23.443Z,58.80
2022-11-21T22:26:43.478Z,58.90
2022-11-21T22:29:10.323Z,59.00
2022-11-21T22:31:40.194Z,58.50
2022-11-21T22:34:07.061Z,59.10
2022-11-21T22:36:33.852Z,58.80
2022-11-21T22:39:00.874Z,59.30
2022-11-21T22:41:27.821Z,59.30
2022-11-21T22:43:57.069Z,58.60
2022-11-21T22:46:25.716Z,58.20
2022-11-21T22:48:53.339Z,59.10
2022-11-21T22:51:23.478Z,59.50
2022-11-21T22:53:50.770Z,59.10
2022-11-21T22:56:20.121Z,58.20
2022-11-21T22:58:47.499Z,58.70
2022-11-21T23:01:22.853Z,58.90
2022-11-21T23:03:49.857Z,58.50
2022-11-21T23:06:23.534Z,58.60
2022-11-21T23:08:51.457Z,59.40
2022-11-21T23:11:22.754Z,59.00
2022-11-21T23:13:50.177Z,59.40
2022-11-21T23:16:17.624Z,59.30
2022-11-21T23:18:44.771Z,58.90
2022-11-21T23:21:12.597Z,58.90
2022-11-21T23:23:39.931Z,58.80
2022-11-21T23:26:07.274Z,58.70
2022-11-21T23:28:34.456Z,58.70
2022-11-21T23:31:01.692Z,58.80
2022-11-21T23:33:28.749Z,58.20
2022-11-21T23:35:55.749Z,58.20
2022-11-21T23:38:22.845Z,59.20
2022-11-21T23:40:49.968Z,57.90
2022-11-21T23:43:17.957Z,58.20
2022-11-21T23:45:45.557Z,58.50
2022-11-21T23:48:12.521Z,58.80
2022-11-21T23:50:39.377Z,58.20
2022-11-21T23:53:06.357Z,58.60
2022-11-21T23:55:33.174Z,58.80
2022-11-21T23:58:00.039Z,58.60
